createdAt,value
2018-02-25T00:02:30.309Z,101729.11
2018-02-25T00:05:00.342Z,101732.94
2018-02-25T00:07:31.828Z,101728.24
2018-02-25T00:10:01.623Z,101726.90
2018-02-25T00:12:32.428Z,101731.66
2018-02-25T00:15:01.712Z,101732.97
2018-02-25T00:17:31.910Z,101732.52
2018-02-25T00:20:01.389Z,101730.83
2018-02-25T00:22:30.983Z,101733.45
2018-02-25T00:25:04.282Z,101738.20
2018-02-25T00:27:34.660Z,101740.31
2018-02-25T00:30:05.009Z,101741.59
2018-02-25T00:32:35.732Z,101742.52
2018-02-25T00:35:08.841Z,101741.69
2018-02-25T00:37:39.407Z,101740.42
2018-02-25T00:40:10.029Z,101745.97
2018-02-25T00:42:40.349Z,101737.83
2018-02-25T00:45:11.859Z,101740.48
2018-02-25T00:47:43.847Z,101739.11
2018-02-25T00:50:13.324Z,101741.23
2018-02-25T00:52:42.837Z,101745.13
2018-02-25T00:55:15.838Z,101744.25
2018-02-25T00:57:45.215Z,101745.96
2018-02-25T01:00:15.891Z,101736.11
2018-02-25T01:02:45.447Z,101741.64
2018-02-25T01:05:15.650Z,101742.64
2018-02-25T01:07:49.081Z,101743.49
2018-02-25T01:10:18.460Z,101744.42
2018-02-25T01:12:48.464Z,101740.53
2018-02-25T01:15:19.239Z,101742.66
2018-02-25T01:17:48.537Z,101743.48
2018-02-25T01:20:22.239Z,101744.38
2018-02-25T01:22:53.219Z,101742.65
2018-02-25T01:25:24.699Z,101739.20
2018-02-25T01:27:56.414Z,101739.69
2018-02-25T01:30:30.438Z,101737.55
2018-02-25T01:32:59.988Z,101735.39
2018-02-25T01:35:30.791Z,101737.11
2018-02-25T01:38:00.068Z,101730.23
2018-02-25T01:40:29.688Z,101726.81
2018-02-25T01:43:02.692Z,101728.52
2018-02-25T01:45:32.013Z,101727.63
2018-02-25T01:48:01.899Z,101722.52
2018-02-25T01:53:32.883Z,101726.56
2018-02-25T01:56:02.018Z,101725.27
2018-02-25T01:58:31.114Z,101736.44
2018-02-25T02:01:00.293Z,101730.39
2018-02-25T02:03:29.845Z,101731.19
2018-02-25T02:05:58.996Z,101738.91
2018-02-25T02:08:27.793Z,101727.67
2018-02-25T02:10:57.022Z,101734.58
2018-02-25T02:13:26.409Z,101732.86
2018-02-25T02:15:55.479Z,101739.33
2018-02-25T02:18:24.843Z,101735.88
2018-02-25T02:20:53.884Z,101736.31
2018-02-25T02:23:23.193Z,101735.45
2018-02-25T02:25:52.674Z,101735.44
2018-02-25T02:28:22.147Z,101736.72
2018-02-25T02:30:51.334Z,101731.58
2018-02-25T02:33:20.677Z,101741.47
2018-02-25T02:35:49.829Z,101741.87
2018-02-25T02:40:59.281Z,101735.91
2018-02-25T02:43:28.633Z,101734.19
2018-02-25T02:45:57.812Z,101726.91
2018-02-25T02:48:27.143Z,101736.34
2018-02-25T02:50:56.368Z,101735.05
2018-02-25T02:53:26.480Z,101739.77
2018-02-25T02:55:57.864Z,101741.91
2018-02-25T02:58:28.500Z,101741.06
2018-02-25T03:00:57.645Z,101732.03
2018-02-25T03:03:26.976Z,101741.94
2018-02-25T03:05:56.632Z,101738.48
2018-02-25T03:08:25.885Z,101737.19
2018-02-25T03:10:57.746Z,101738.97
2018-02-25T03:13:28.640Z,101746.69
2018-02-25T03:15:59.966Z,101744.11
2018-02-25T03:18:33.121Z,101744.12
2018-02-25T03:21:02.551Z,101746.75
2018-02-25T03:23:31.783Z,101740.73
2018-02-25T03:26:03.076Z,101730.91
2018-02-25T03:28:36.902Z,101753.62
2018-02-25T03:31:07.684Z,101754.05
2018-02-25T03:33:37.160Z,101748.49
2018-02-25T03:36:06.874Z,101754.08
2018-02-25T03:38:37.165Z,101751.14
2018-02-25T03:41:11.684Z,101758.41
2018-02-25T03:43:43.689Z,101752.41
2018-02-25T03:46:13.375Z,101758.84
2018-02-25T03:48:42.924Z,101754.55
2018-02-25T03:51:14.521Z,101756.27
2018-02-25T03:53:45.353Z,101751.97
2018-02-25T03:56:14.530Z,101748.13
2018-02-25T03:58:43.974Z,101742.11
2018-02-25T04:01:14.786Z,101750.27
2018-02-25T04:03:44.253Z,101746.86
2018-02-25T04:06:16.010Z,101751.59
2018-02-25T04:08:45.891Z,101754.14
2018-02-25T04:11:17.405Z,101750.73
2018-02-25T04:13:47.109Z,101751.16
2018-02-25T04:16:18.484Z,101742.17
2018-02-25T04:18:48.263Z,101752.87
2018-02-25T04:21:20.983Z,101752.89
2018-02-25T04:23:52.599Z,101748.61
2018-02-25T04:26:23.048Z,101754.59
2018-02-25T04:28:56.421Z,101745.17
2018-02-25T04:31:25.915Z,101746.00
2018-02-25T04:33:57.279Z,101745.58
2018-02-25T04:36:27.750Z,101749.86
2018-02-25T04:38:59.042Z,101749.86
2018-02-25T04:41:30.314Z,101743.42
2018-02-25T04:43:59.387Z,101749.86
2018-02-25T04:46:30.053Z,101749.42
2018-02-25T04:48:59.848Z,101750.70
2018-02-25T04:51:30.848Z,101745.56
2018-02-25T04:54:02.848Z,101748.12
2018-02-25T04:56:32.381Z,101744.70
2018-02-25T04:59:05.443Z,101744.70
2018-02-25T05:01:35.908Z,101754.98
2018-02-25T05:04:05.067Z,101751.13
2018-02-25T05:06:37.988Z,101745.11
2018-02-25T05:09:08.293Z,101747.23
2018-02-25T05:11:37.992Z,101745.95
2018-02-25T05:14:08.582Z,101751.95
2018-02-25T05:16:39.604Z,101748.95
2018-02-25T05:19:10.402Z,101751.09
2018-02-25T05:21:40.425Z,101755.36
2018-02-25T05:24:12.915Z,101757.06
2018-02-25T05:26:44.578Z,101756.64
2018-02-25T05:29:13.832Z,101759.60
2018-02-25T05:31:47.974Z,101763.91
2018-02-25T05:34:18.137Z,101760.44
2018-02-25T05:36:48.047Z,101766.89
2018-02-25T05:39:17.341Z,101765.16
2018-02-25T05:41:50.639Z,101772.01
2018-02-25T05:44:20.923Z,101777.97
2018-02-25T05:46:51.750Z,101773.69
2018-02-25T05:49:21.013Z,101774.97
2018-02-25T05:51:51.233Z,101782.66
2018-02-25T05:54:22.857Z,101777.97
2018-02-25T05:56:53.544Z,101773.66
2018-02-25T05:59:24.290Z,101785.23
2018-02-25T06:01:54.649Z,101783.08
2018-02-25T06:04:25.171Z,101788.22
2018-02-25T06:06:55.533Z,101796.37
2018-02-25T06:09:27.110Z,101793.37
2018-02-25T06:11:59.380Z,101787.81
2018-02-25T06:14:30.499Z,101784.38
2018-02-25T06:17:02.264Z,101786.52
2018-02-25T06:19:32.496Z,101778.84
2018-02-25T06:22:06.644Z,101785.69
2018-02-25T06:24:36.249Z,101796.00
2018-02-25T06:27:05.191Z,101793.42
2018-02-25T06:29:34.914Z,101796.88
2018-02-25T06:32:06.135Z,101796.03
2018-02-25T06:34:37.156Z,101796.46
2018-02-25T06:37:07.828Z,101797.33
2018-02-25T06:39:39.720Z,101796.04
2018-02-25T06:42:10.604Z,101784.91
2018-02-25T06:44:41.536Z,101790.48
2018-02-25T06:47:12.157Z,101796.95
2018-02-25T06:49:42.110Z,101799.95
2018-02-25T06:52:13.368Z,101801.69
2018-02-25T06:54:44.614Z,101796.98
2018-02-25T06:57:15.605Z,101801.72
2018-02-25T06:59:46.030Z,101801.72
2018-02-25T07:02:16.920Z,101805.57
2018-02-25T07:04:47.604Z,101805.58
2018-02-25T07:07:18.023Z,101803.03
2018-02-25T07:09:51.091Z,101804.77
2018-02-25T07:12:20.826Z,101795.30
2018-02-25T07:14:52.477Z,101800.03
2018-02-25T07:17:23.406Z,101809.05
2018-02-25T07:19:53.954Z,101808.62
2018-02-25T07:22:26.406Z,101809.91
2018-02-25T07:24:55.696Z,101814.19
2018-02-25T07:27:27.793Z,101807.74
2018-02-25T07:29:57.123Z,101806.91
2018-02-25T07:32:28.279Z,101805.18
2018-02-25T07:35:01.316Z,101805.63
2018-02-25T07:37:30.770Z,101809.89
2018-02-25T07:40:00.397Z,101802.63
2018-02-25T07:42:32.138Z,101811.62
2018-02-25T07:45:02.826Z,101800.03
2018-02-25T07:47:33.592Z,101807.30
2018-02-25T07:50:02.928Z,101803.47
2018-02-25T07:52:33.786Z,101800.44
2018-02-25T07:55:04.294Z,101810.34
2018-02-25T07:57:35.588Z,101798.31
2018-02-25T08:00:05.290Z,101806.91
2018-02-25T08:02:36.079Z,101812.48
2018-02-25T08:05:06.280Z,101808.59
2018-02-25T08:07:37.678Z,101800.87
2018-02-25T08:10:08.567Z,101807.31
2018-02-25T08:12:39.665Z,101815.03
2018-02-25T08:15:10.396Z,101811.17
2018-02-25T08:17:43.368Z,101809.89
2018-02-25T08:20:15.047Z,101810.73
2018-02-25T08:22:49.484Z,101808.09
2018-02-25T08:25:18.644Z,101797.31
2018-02-25T08:27:49.454Z,101794.67
2018-02-25T08:30:19.968Z,101805.81
2018-02-25T08:32:50.553Z,101797.23
2018-02-25T08:35:22.095Z,101795.09
2018-02-25T08:37:52.573Z,101798.05
2018-02-25T08:40:22.599Z,101795.39
2018-02-25T08:42:53.058Z,101792.72
2018-02-25T08:45:23.698Z,101787.14
2018-02-25T08:47:56.057Z,101787.00
2018-02-25T08:50:25.540Z,101799.34
2018-02-25T08:52:56.179Z,101795.40
2018-02-25T08:55:26.442Z,101795.73
2018-02-25T08:57:58.194Z,101790.92
2018-02-25T09:00:27.883Z,101788.92
2018-02-25T09:02:58.889Z,101783.95
2018-02-25T09:05:28.869Z,101780.81
2018-02-25T09:07:59.866Z,101784.41
2018-02-25T09:10:31.492Z,101778.29
2018-02-25T09:13:06.088Z,101785.95
2018-02-25T09:15:35.216Z,101775.81
2018-02-25T09:18:04.300Z,101774.77
2018-02-25T09:20:34.001Z,101782.58
2018-02-25T09:23:03.872Z,101780.04
2018-02-25T09:25:35.655Z,101762.37
2018-02-25T09:28:06.748Z,101773.08
2018-02-25T09:30:36.700Z,101785.05
2018-02-25T09:33:06.306Z,101777.16
2018-02-25T09:35:37.168Z,101774.08
2018-02-25T09:38:08.627Z,101774.95
2018-02-25T09:40:39.896Z,101779.41
2018-02-25T09:43:12.297Z,101772.00
2018-02-25T09:45:41.840Z,101771.58
2018-02-25T09:48:12.289Z,101777.66
2018-02-25T09:50:43.428Z,101771.52
2018-02-25T09:53:13.849Z,101775.87
2018-02-25T09:55:45.238Z,101771.48
2018-02-25T09:58:15.700Z,101760.84
2018-02-25T10:00:46.545Z,101758.50
2018-02-25T10:03:17.074Z,101765.40
2018-02-25T10:05:48.838Z,101748.89
2018-02-25T10:08:21.467Z,101751.72
2018-02-25T10:10:50.897Z,101754.30
2018-02-25T10:13:21.544Z,101753.52
2018-02-25T10:15:52.913Z,101747.83
2018-02-25T10:18:26.785Z,101736.95
2018-02-25T10:20:56.747Z,101743.10
2018-02-25T10:23:26.912Z,101745.89
2018-02-25T10:25:57.296Z,101742.19
2018-02-25T10:28:26.887Z,101746.30
2018-02-25T10:30:57.648Z,101745.37
2018-02-25T10:33:28.536Z,101740.94
2018-02-25T10:35:59.448Z,101736.44
2018-02-25T10:38:29.654Z,101731.97
2018-02-25T10:41:00.713Z,101727.48
2018-02-25T10:43:30.831Z,101717.02
2018-02-25T10:46:01.793Z,101718.37
2018-02-25T10:48:32.169Z,101711.98
2018-02-25T10:51:03.516Z,101712.45
2018-02-25T10:53:34.343Z,101711.20
2018-02-25T10:56:03.866Z,101711.97
2018-02-25T10:58:36.169Z,101707.11
2018-02-25T11:01:08.052Z,101697.77
2018-02-25T11:03:39.870Z,101688.35
2018-02-25T11:06:10.214Z,101696.77
2018-02-25T11:08:40.894Z,101688.34
2018-02-25T11:11:11.711Z,101679.34
2018-02-25T11:13:43.327Z,101676.02
2018-02-25T11:16:13.739Z,101673.01
2018-02-25T11:18:44.499Z,101667.27
2018-02-25T11:21:16.220Z,101659.07
2018-02-25T11:23:46.872Z,101657.06
2018-02-25T11:26:17.846Z,101656.25
2018-02-25T11:28:48.320Z,101649.78
2018-02-25T11:31:21.649Z,101648.97
2018-02-25T11:33:50.920Z,101645.47
2018-02-25T11:36:21.329Z,101655.94
2018-02-25T11:38:52.767Z,101641.44
2018-02-25T11:41:21.649Z,101641.41
2018-02-25T11:43:53.262Z,101641.05
2018-02-25T11:46:24.199Z,101630.95
2018-02-25T11:48:55.506Z,101626.39
2018-02-25T11:51:27.123Z,101628.50
2018-02-25T11:53:57.764Z,101626.34
2018-02-25T11:56:28.647Z,101622.41
2018-02-25T11:58:59.873Z,101620.84
2018-02-25T12:01:29.472Z,101615.05
2018-02-25T12:04:00.065Z,101620.27
2018-02-25T12:06:30.948Z,101619.44
2018-02-25T12:09:01.797Z,101630.22
2018-02-25T12:11:33.210Z,101626.78
2018-02-25T12:14:03.842Z,101620.81
2018-02-25T12:16:36.314Z,101619.67
2018-02-25T12:19:08.380Z,101620.59
2018-02-25T12:21:37.941Z,101617.27
2018-02-25T12:24:10.481Z,101618.57
2018-02-25T12:26:40.407Z,101618.41
2018-02-25T12:29:09.682Z,101613.67
2018-02-25T12:31:41.137Z,101609.63
2018-02-25T12:34:10.940Z,101602.48
2018-02-25T12:36:41.878Z,101594.21
2018-02-25T12:39:12.259Z,101593.16
2018-02-25T12:41:42.690Z,101589.58
2018-02-25T12:44:13.572Z,101587.16
2018-02-25T12:46:44.520Z,101579.92
2018-02-25T12:49:15.424Z,101586.25
2018-02-25T12:51:46.355Z,101592.07
2018-02-25T12:54:17.492Z,101584.62
2018-02-25T12:56:48.787Z,101578.12
2018-02-25T12:59:19.595Z,101577.05
2018-02-25T13:01:50.975Z,101572.27
2018-02-25T13:04:21.647Z,101569.68
2018-02-25T13:06:52.700Z,101567.95
2018-02-25T13:09:29.895Z,101559.55
2018-02-25T13:11:59.228Z,101557.95
2018-02-25T13:14:28.510Z,101559.23
2018-02-25T13:16:57.659Z,101556.27
2018-02-25T13:19:27.317Z,101549.83
2018-02-25T13:21:57.855Z,101547.98
2018-02-25T13:24:28.588Z,101550.51
2018-02-25T13:26:59.097Z,101544.39
2018-02-25T13:29:29.886Z,101530.41
2018-02-25T13:32:01.162Z,101537.92
2018-02-25T13:34:31.627Z,101535.80
2018-02-25T13:37:02.326Z,101538.44
2018-02-25T13:39:32.976Z,101537.17
2018-02-25T13:42:02.824Z,101538.36
2018-02-25T13:44:34.040Z,101536.54
2018-02-25T13:47:04.643Z,101527.85
2018-02-25T13:49:35.564Z,101528.04
2018-02-25T13:52:06.426Z,101524.60
2018-02-25T13:54:37.393Z,101522.27
2018-02-25T13:57:08.381Z,101512.75
2018-02-25T13:59:39.946Z,101514.82
2018-02-25T14:02:11.552Z,101516.06
2018-02-25T14:04:41.201Z,101512.20
2018-02-25T14:07:11.589Z,101507.53
2018-02-25T14:09:42.209Z,101515.68
2018-02-25T14:12:12.628Z,101514.19
2018-02-25T14:14:43.553Z,101512.13
2018-02-25T14:17:16.033Z,101514.10
2018-02-25T14:19:45.553Z,101514.08
2018-02-25T14:22:16.168Z,101515.53
2018-02-25T14:24:45.884Z,101513.98
2018-02-25T14:27:16.506Z,101517.70
2018-02-25T14:29:47.440Z,101514.49
2018-02-25T14:32:18.629Z,101502.62
2018-02-25T14:34:50.528Z,101511.33
2018-02-25T14:37:21.796Z,101517.82
2018-02-25T14:39:52.136Z,101509.15
2018-02-25T14:42:23.774Z,101513.33
2018-02-25T14:44:54.376Z,101509.97
2018-02-25T14:47:23.865Z,101513.46
2018-02-25T14:49:54.187Z,101509.34
2018-02-25T14:52:25.664Z,101512.75
2018-02-25T14:54:56.381Z,101506.27
2018-02-25T14:57:31.864Z,101506.66
2018-02-25T15:00:04.475Z,101501.70
2018-02-25T15:02:34.664Z,101509.38
2018-02-25T15:05:03.935Z,101500.35
2018-02-25T15:07:33.791Z,101499.69
2018-02-25T15:10:04.215Z,101492.45
2018-02-25T15:12:35.066Z,101498.57
2018-02-25T15:15:04.979Z,101493.72
2018-02-25T15:17:35.279Z,101506.62
2018-02-25T15:20:05.933Z,101503.88
2018-02-25T15:22:36.596Z,101514.38
2018-02-25T15:25:08.930Z,101503.31
2018-02-25T15:27:39.187Z,101497.94
2018-02-25T15:30:09.658Z,101506.21
2018-02-25T15:32:40.505Z,101505.65
2018-02-25T15:35:11.472Z,101501.47
2018-02-25T15:37:42.420Z,101500.34
2018-02-25T15:40:13.353Z,101506.98
2018-02-25T15:42:43.917Z,101506.45
2018-02-25T15:45:14.185Z,101505.64
2018-02-25T15:47:44.559Z,101506.02
2018-02-25T15:50:15.192Z,101508.31
2018-02-25T15:52:46.426Z,101504.80
2018-02-25T15:55:16.892Z,101511.51
2018-02-25T15:57:47.741Z,101508.86
2018-02-25T16:00:18.851Z,101507.12
2018-02-25T16:02:49.498Z,101506.31
2018-02-25T16:05:22.046Z,101512.53
2018-02-25T16:07:52.266Z,101507.41
2018-02-25T16:10:22.853Z,101509.41
2018-02-25T16:12:53.584Z,101508.83
2018-02-25T16:15:26.557Z,101510.38
2018-02-25T16:17:56.443Z,101521.14
2018-02-25T16:20:26.233Z,101515.37
2018-02-25T16:22:55.899Z,101515.81
2018-02-25T16:25:28.506Z,101522.80
2018-02-25T16:27:58.119Z,101522.85
2018-02-25T16:30:28.921Z,101522.61
2018-02-25T16:32:59.483Z,101519.86
2018-02-25T16:35:30.430Z,101522.72
2018-02-25T16:38:02.403Z,101525.84
2018-02-25T16:40:33.544Z,101526.16
2018-02-25T16:43:04.083Z,101533.34
2018-02-25T16:45:34.543Z,101532.78
2018-02-25T16:48:05.162Z,101540.88
2018-02-25T16:50:35.859Z,101545.53
2018-02-25T16:53:06.364Z,101541.95
2018-02-25T16:55:38.993Z,101546.92
2018-02-25T16:58:09.760Z,101548.63
2018-02-25T17:00:42.123Z,101550.09
2018-02-25T17:03:11.505Z,101556.25
2018-02-25T17:05:42.287Z,101560.77
2018-02-25T17:08:12.109Z,101560.02
2018-02-25T17:10:42.616Z,101557.70
2018-02-25T17:13:14.106Z,101563.92
2018-02-25T17:15:44.259Z,101575.41
2018-02-25T17:18:15.192Z,101575.34
2018-02-25T17:20:45.815Z,101572.84
2018-02-25T17:23:16.868Z,101581.59
2018-02-25T17:25:47.620Z,101562.91
2018-02-25T17:28:19.080Z,101570.78
2018-02-25T17:30:51.343Z,101574.31
2018-02-25T17:33:22.958Z,101577.43
2018-02-25T17:35:52.176Z,101575.36
2018-02-25T17:38:22.903Z,101576.30
2018-02-25T17:40:56.497Z,101573.80
2018-02-25T17:43:25.860Z,101571.22
2018-02-25T17:45:56.439Z,101575.20
2018-02-25T17:48:26.097Z,101569.65
2018-02-25T17:50:55.872Z,101569.29
2018-02-25T17:53:26.627Z,101569.36
2018-02-25T17:55:57.702Z,101564.72
2018-02-25T17:58:32.288Z,101564.34
2018-02-25T18:01:03.034Z,101564.84
2018-02-25T18:03:32.288Z,101564.11
2018-02-25T18:06:04.238Z,101564.16
2018-02-25T18:08:33.485Z,101569.77
2018-02-25T18:11:06.292Z,101577.19
2018-02-25T18:13:36.052Z,101572.95
2018-02-25T18:16:05.942Z,101575.17
2018-02-25T18:18:36.172Z,101575.64
2018-02-25T18:21:07.453Z,101566.20
2018-02-25T18:23:38.140Z,101575.36
2018-02-25T18:26:08.047Z,101568.87
2018-02-25T18:28:38.692Z,101569.37
2018-02-25T18:31:10.266Z,101570.30
2018-02-25T18:33:40.671Z,101575.92
2018-02-25T18:36:11.481Z,101578.11
2018-02-25T18:38:42.438Z,101573.75
2018-02-25T18:41:12.985Z,101569.91
2018-02-25T18:43:44.029Z,101582.41
2018-02-25T18:46:14.630Z,101579.84
2018-02-25T18:48:45.602Z,101573.79
2018-02-25T18:51:16.505Z,101576.36
2018-02-25T18:53:47.454Z,101575.49
2018-02-25T18:56:20.184Z,101578.55
2018-02-25T18:58:51.074Z,101577.63
2018-02-25T19:01:20.381Z,101571.19
2018-02-25T19:03:50.041Z,101570.78
2018-02-25T19:06:23.337Z,101576.04
2018-02-25T19:08:53.760Z,101581.17
2018-02-25T19:11:23.340Z,101588.06
2018-02-25T19:13:53.906Z,101587.62
2018-02-25T19:16:25.346Z,101590.53
2018-02-25T19:18:54.568Z,101590.05
2018-02-25T19:21:24.875Z,101587.90
2018-02-25T19:23:55.819Z,101592.61
2018-02-25T19:26:27.210Z,101587.56
2018-02-25T19:28:57.936Z,101590.44
2018-02-25T19:31:29.255Z,101587.65
2018-02-25T19:34:00.138Z,101585.50
2018-02-25T19:36:36.401Z,101584.27
2018-02-25T19:39:10.489Z,101587.65
2018-02-25T19:41:45.229Z,101588.20
2018-02-25T19:44:14.918Z,101588.05
2018-02-25T19:46:44.100Z,101587.02
2018-02-25T19:49:14.296Z,101589.72
2018-02-25T19:51:43.943Z,101585.04
2018-02-25T19:54:13.111Z,101581.58
2018-02-25T19:56:42.948Z,101579.37
2018-02-25T19:59:12.786Z,101574.11
2018-02-25T20:01:43.384Z,101569.71
2018-02-25T20:04:14.144Z,101569.21
2018-02-25T20:06:45.375Z,101573.51
2018-02-25T20:09:16.043Z,101584.89
2018-02-25T20:11:47.000Z,101531.25
2018-02-25T20:14:18.569Z,101580.20
2018-02-25T20:16:49.239Z,101583.62
2018-02-25T20:19:18.899Z,101583.65
2018-02-25T20:21:50.349Z,101579.73
2018-02-25T20:24:20.820Z,101577.16
2018-02-25T20:26:52.913Z,101570.26
2018-02-25T20:29:25.841Z,101566.88
2018-02-25T20:31:55.824Z,101566.36
2018-02-25T20:34:24.988Z,101559.11
2018-02-25T20:36:55.941Z,101565.96
2018-02-25T20:39:26.937Z,101568.55
2018-02-25T20:41:57.839Z,101561.24
2018-02-25T20:44:31.024Z,101562.60
2018-02-25T20:47:01.981Z,101560.48
2018-02-25T20:49:33.711Z,101558.42
2018-02-25T20:52:02.856Z,101568.25
2018-02-25T20:54:33.204Z,101570.66
2018-02-25T20:57:02.952Z,101560.02
2018-02-25T20:59:33.590Z,101568.74
2018-02-25T21:02:04.543Z,101562.75
2018-02-25T21:04:35.513Z,101568.02
2018-02-25T21:07:06.178Z,101569.80
2018-02-25T21:09:36.733Z,101568.14
2018-02-25T21:12:08.483Z,101570.36
2018-02-25T21:14:39.832Z,101570.00
2018-02-25T21:17:11.030Z,101569.57
2018-02-25T21:19:40.899Z,101567.48
2018-02-25T21:22:11.672Z,101570.50
2018-02-25T21:24:44.061Z,101576.16
2018-02-25T21:27:13.272Z,101574.05
2018-02-25T21:29:43.360Z,101576.65
2018-02-25T21:32:15.283Z,101573.69
2018-02-25T21:34:47.020Z,101578.03
2018-02-25T21:37:18.156Z,101581.08
2018-02-25T21:39:48.751Z,101577.23
2018-02-25T21:42:19.279Z,101582.84
2018-02-25T21:44:48.988Z,101579.81
2018-02-25T21:47:20.188Z,101581.63
2018-02-25T21:49:50.635Z,101579.03
2018-02-25T21:52:23.696Z,101577.34
2018-02-25T21:54:58.667Z,101574.37
2018-02-25T21:57:36.499Z,101579.16
2018-02-25T22:00:11.122Z,101574.06
2018-02-25T22:02:45.896Z,101576.67
2018-02-25T22:05:14.708Z,101574.13
2018-02-25T22:07:44.286Z,101569.91
2018-02-25T22:10:13.542Z,101576.80
2018-02-25T22:12:43.848Z,101572.11
2018-02-25T22:15:13.700Z,101569.11
2018-02-25T22:17:42.851Z,101566.13
2018-02-25T22:20:12.007Z,101564.86
2018-02-25T22:22:41.141Z,101561.45
2018-02-25T22:25:10.527Z,101556.74
2018-02-25T22:27:40.165Z,101554.25
2018-02-25T22:30:09.335Z,101558.62
2018-02-25T22:32:38.628Z,101556.51
2018-02-25T22:35:08.002Z,101562.58
2018-02-25T22:37:38.363Z,101561.33
2018-02-25T22:40:07.661Z,101565.67
2018-02-25T22:42:40.136Z,101558.82
2018-02-25T22:45:09.345Z,101562.27
2018-02-25T22:47:39.990Z,101558.06
2018-02-25T22:50:11.076Z,101562.81
2018-02-25T22:52:42.255Z,101564.98
2018-02-25T22:55:15.041Z,101564.12
2018-02-25T22:57:44.243Z,101558.56
2018-02-25T23:00:21.693Z,101564.59
2018-02-25T23:02:51.000Z,101565.96
2018-02-25T23:05:20.183Z,101571.58
2018-02-25T23:07:49.651Z,101564.27
2018-02-25T23:10:19.463Z,101563.85
2018-02-25T23:12:50.125Z,101563.92
2018-02-25T23:15:21.710Z,101556.22
2018-02-25T23:17:53.044Z,101566.13
2018-02-25T23:20:24.259Z,101567.87
2018-02-25T23:22:54.766Z,101558.88
2018-02-25T23:25:26.629Z,101558.47
2018-02-25T23:27:55.835Z,101553.81
2018-02-25T23:30:25.708Z,101555.98
2018-02-25T23:32:57.084Z,101554.30
2018-02-25T23:35:28.327Z,101553.04
2018-02-25T23:37:58.598Z,101543.16
2018-02-25T23:40:27.820Z,101547.09
2018-02-25T23:43:00.050Z,101550.11
2018-02-25T23:45:31.304Z,101550.12
2018-02-25T23:48:02.388Z,101540.67
2018-02-25T23:50:35.948Z,101541.56
2018-02-25T23:53:05.196Z,101535.16
2018-02-25T23:55:34.956Z,101534.31
2018-02-25T23:58:06.447Z,101530.91
